Time;durP1;ratioP1;P1;durP2;ratioP2;P2;SDS_P1;SDS_P2;PMS_P1;PMS_P2;Temp;Humidity;BMP_temperature;BMP_pressure;BME280_temperature;BME280_humidity;BME280_pressure;Samples;Min_cycle;Max_cycle;Signal;HPM_P1;HPM_P2
2023/01/27 00:01:17;;;;;;;18.35;8.43;;;;;;;;;;6227556;23;20008;-93
2023/01/27 00:03:45;;;;;;;20.23;8.00;;;;;;;;;;6228552;23;20431;-93
2023/01/27 00:06:11;;;;;;;15.35;7.90;;;;;;;;;;6252481;23;20096;-93
2023/01/27 00:08:38;;;;;;;21.08;8.73;;;;;;;;;;6228975;23;20010;-94
2023/01/27 00:13:50;;;;;;;18.85;7.55;;;;;;;;;;6254878;23;20015;-93
2023/01/27 00:16:32;;;;;;;21.45;8.15;;;;;;;;;;6227424;23;20379;-94
2023/01/27 00:18:58;;;;;;;16.33;7.85;;;;;;;;;;6253247;23;20008;-93
2023/01/27 00:26:57;;;;;;;20.85;6.88;;;;;;;;;;6254493;23;20019;-94
2023/01/27 00:29:35;;;;;;;12.32;5.85;;;;;;;;;;6254563;22;20373;-94
2023/01/27 00:34:46;;;;;;;11.73;5.75;;;;;;;;;;6254225;23;20012;-93
2023/01/27 00:37:13;;;;;;;11.88;5.22;;;;;;;;;;6227121;23;20397;-94
2023/01/27 00:39:39;;;;;;;15.65;6.40;;;;;;;;;;6251919;23;20063;-93
2023/01/27 00:42:05;;;;;;;17.05;6.25;;;;;;;;;;6227489;23;20012;-94
2023/01/27 00:44:31;;;;;;;9.77;5.15;;;;;;;;;;6227663;23;19993;-95
2023/01/27 00:46:57;;;;;;;17.67;5.40;;;;;;;;;;6226598;23;20034;-93
2023/01/27 00:49:23;;;;;;;11.70;4.65;;;;;;;;;;6251824;23;20015;-94
2023/01/27 00:51:50;;;;;;;8.68;4.65;;;;;;;;;;6229770;23;20015;-94
2023/01/27 00:54:19;;;;;;;8.32;4.65;;;;;;;;;;6256406;23;20000;-94
2023/01/27 00:56:45;;;;;;;8.98;4.20;;;;;;;;;;6228028;23;20015;-93
2023/01/27 00:59:11;;;;;;;12.95;3.83;;;;;;;;;;6227177;23;20073;-93
2023/01/27 01:01:38;;;;;;;10.65;4.38;;;;;;;;;;6252325;23;20008;-94
2023/01/27 01:04:04;;;;;;;13.98;4.25;;;;;;;;;;6252904;23;20008;-94
2023/01/27 01:06:30;;;;;;;15.75;5.03;;;;;;;;;;6251954;23;20004;-93
2023/01/27 01:08:57;;;;;;;12.73;4.68;;;;;;;;;;6251990;23;20495;-93
2023/01/27 01:11:29;;;;;;;7.22;3.78;;;;;;;;;;6253585;23;20027;-94
2023/01/27 01:13:55;;;;;;;15.82;5.03;;;;;;;;;;6253471;23;20079;-94
2023/01/27 01:16:22;;;;;;;10.80;4.97;;;;;;;;;;6227461;23;20004;-94
2023/01/27 01:18:48;;;;;;;9.85;4.43;;;;;;;;;;6227194;23;20038;-93
2023/01/27 01:21:15;;;;;;;8.13;3.67;;;;;;;;;;6253235;23;20008;-94
2023/01/27 01:23:42;;;;;;;9.10;4.72;;;;;;;;;;6252503;23;20012;-93
2023/01/27 01:26:09;;;;;;;10.50;3.58;;;;;;;;;;6251814;23;20004;-93
2023/01/27 01:28:35;;;;;;;13.82;4.10;;;;;;;;;;6253207;23;20004;-94
2023/01/27 01:31:09;;;;;;;11.30;4.18;;;;;;;;;;6252785;22;20068;-94
2023/01/27 01:33:36;;;;;;;11.82;3.50;;;;;;;;;;6251349;23;20054;-93
2023/01/27 01:36:09;;;;;;;13.07;3.67;;;;;;;;;;6251295;23;20004;-93
2023/01/27 01:38:36;;;;;;;6.97;3.17;;;;;;;;;;6252309;23;20433;-93
2023/01/27 01:41:02;;;;;;;4.55;2.53;;;;;;;;;;6252089;23;20008;-94
2023/01/27 01:43:28;;;;;;;7.22;3.03;;;;;;;;;;6252423;23;20015;-93
2023/01/27 01:45:58;;;;;;;9.68;2.50;;;;;;;;;;6252487;23;20004;-93
2023/01/27 01:48:29;;;;;;;5.07;2.05;;;;;;;;;;6251849;23;20004;-94
2023/01/27 01:51:02;;;;;;;4.13;2.30;;;;;;;;;;6251984;23;20007;-94
2023/01/27 01:53:32;;;;;;;4.85;1.77;;;;;;;;;;6252051;23;20004;-93
2023/01/27 01:56:00;;;;;;;6.75;2.17;;;;;;;;;;6252300;23;20000;-94
2023/01/27 01:58:27;;;;;;;10.20;2.90;;;;;;;;;;6250458;23;20008;-94
2023/01/27 02:00:54;;;;;;;5.35;2.63;;;;;;;;;;6253105;23;20023;-93
2023/01/27 02:03:20;;;;;;;6.80;2.60;;;;;;;;;;6226800;23;20019;-94
2023/01/27 02:05:46;;;;;;;10.55;2.60;;;;;;;;;;6227168;23;20492;-94
2023/01/27 02:08:45;;;;;;;11.77;2.10;;;;;;;;;;6227173;23;20034;-94
2023/01/27 02:11:15;;;;;;;5.75;2.75;;;;;;;;;;6203110;23;20007;-94
2023/01/27 02:13:42;;;;;;;5.28;2.30;;;;;;;;;;6226976;23;20015;-94
2023/01/27 02:16:09;;;;;;;7.68;1.90;;;;;;;;;;6250853;23;20356;-94
2023/01/27 02:18:37;;;;;;;4.88;1.95;;;;;;;;;;6251444;23;20059;-93
2023/01/27 02:21:04;;;;;;;4.03;1.67;;;;;;;;;;6251634;23;20436;-94
2023/01/27 02:23:45;;;;;;;5.70;1.42;;;;;;;;;;6251343;23;20031;-94
2023/01/27 02:26:15;;;;;;;5.90;1.60;;;;;;;;;;6251725;23;20004;-93
2023/01/27 02:28:42;;;;;;;7.43;1.70;;;;;;;;;;6253287;22;20043;-94
2023/01/27 02:31:11;;;;;;;6.30;1.48;;;;;;;;;;6252637;22;20047;-94
2023/01/27 02:33:37;;;;;;;4.38;1.77;;;;;;;;;;6251752;23;20034;-94
2023/01/27 02:36:03;;;;;;;4.53;1.23;;;;;;;;;;6226443;23;20008;-94
2023/01/27 02:38:32;;;;;;;8.55;1.40;;;;;;;;;;6250728;23;20344;-93
2023/01/27 02:41:01;;;;;;;7.60;1.77;;;;;;;;;;6252490;23;20004;-94
2023/01/27 02:43:27;;;;;;;3.60;1.30;;;;;;;;;;6250140;23;20012;-94
2023/01/27 02:45:53;;;;;;;8.07;1.65;;;;;;;;;;6226070;23;20015;-93
2023/01/27 02:48:19;;;;;;;4.30;1.67;;;;;;;;;;6223581;23;20062;-91
2023/01/27 02:50:45;;;;;;;3.17;1.40;;;;;;;;;;6222919;23;20015;-92
2023/01/27 02:53:13;;;;;;;4.82;1.42;;;;;;;;;;6224982;23;20004;-94
2023/01/27 02:55:39;;;;;;;5.03;1.10;;;;;;;;;;6251430;23;20000;-94
2023/01/27 02:58:05;;;;;;;5.03;1.20;;;;;;;;;;6226178;23;20073;-94
2023/01/27 03:00:31;;;;;;;3.22;1.27;;;;;;;;;;6228054;23;20083;-94
2023/01/27 03:02:57;;;;;;;5.22;1.25;;;;;;;;;;6226435;23;20127;-94
2023/01/27 03:05:23;;;;;;;2.80;1.10;;;;;;;;;;6252305;23;20005;-94
2023/01/27 03:07:50;;;;;;;1.73;1.08;;;;;;;;;;6251705;23;20004;-94
2023/01/27 03:10:16;;;;;;;3.83;1.30;;;;;;;;;;6252087;23;20039;-94
2023/01/27 03:12:43;;;;;;;2.50;1.20;;;;;;;;;;6253992;23;20417;-93
2023/01/27 03:18:14;;;;;;;3.88;1.23;;;;;;;;;;6254494;23;20015;-95
2023/01/27 03:20:41;;;;;;;1.38;0.88;;;;;;;;;;6232626;23;20012;-93
2023/01/27 03:23:08;;;;;;;4.82;1.20;;;;;;;;;;6227566;23;20446;-94
2023/01/27 03:25:34;;;;;;;6.13;1.25;;;;;;;;;;6254167;23;20005;-94
2023/01/27 03:28:00;;;;;;;4.15;1.25;;;;;;;;;;6252885;23;20008;-93
2023/01/27 03:30:39;;;;;;;5.50;1.30;;;;;;;;;;6254783;22;20017;-94
2023/01/27 03:33:06;;;;;;;4.63;1.20;;;;;;;;;;6229997;23;20012;-95
2023/01/27 03:35:37;;;;;;;2.95;1.20;;;;;;;;;;6228909;23;20425;-92
2023/01/27 03:46:18;;;;;;;6.13;2.00;;;;;;;;;;6254666;23;20019;-94
2023/01/27 03:48:48;;;;;;;7.47;1.20;;;;;;;;;;6254296;23;20035;-94
2023/01/27 03:51:14;;;;;;;5.50;2.00;;;;;;;;;;6253094;23;20007;-93
2023/01/27 03:53:40;;;;;;;8.73;1.13;;;;;;;;;;6253874;23;20008;-94
2023/01/27 03:56:07;;;;;;;2.95;1.30;;;;;;;;;;6253446;23;20011;-94
2023/01/27 03:58:36;;;;;;;9.63;1.77;;;;;;;;;;6229218;23;20008;-94
2023/01/27 04:01:07;;;;;;;5.45;1.33;;;;;;;;;;6253437;23;20012;-94
2023/01/27 04:09:07;;;;;;;4.45;1.25;;;;;;;;;;6253930;23;20015;-94
2023/01/27 04:14:21;;;;;;;6.00;1.20;;;;;;;;;;6253705;23;20139;-95
2023/01/27 04:16:47;;;;;;;2.95;1.08;;;;;;;;;;6253964;23;20012;-95
2023/01/27 04:19:13;;;;;;;2.00;1.30;;;;;;;;;;6253154;23;20450;-94
2023/01/27 04:21:40;;;;;;;8.98;1.65;;;;;;;;;;6252735;23;20461;-94
2023/01/27 04:24:16;;;;;;;5.22;1.40;;;;;;;;;;6252570;23;20030;-94
2023/01/27 04:26:45;;;;;;;3.72;1.00;;;;;;;;;;6229645;23;20447;-94
2023/01/27 04:29:12;;;;;;;7.45;1.60;;;;;;;;;;6252388;23;20004;-94
2023/01/27 04:31:39;;;;;;;6.22;1.38;;;;;;;;;;6229456;22;20020;-94
2023/01/27 04:34:06;;;;;;;4.78;1.20;;;;;;;;;;6253606;23;20004;-94
2023/01/27 04:36:32;;;;;;;1.35;0.98;;;;;;;;;;6228470;23;20008;-93
2023/01/27 04:38:58;;;;;;;2.58;1.48;;;;;;;;;;6226725;23;20440;-93
2023/01/27 04:41:27;;;;;;;7.13;1.58;;;;;;;;;;6224083;23;20008;-94
2023/01/27 04:43:53;;;;;;;4.60;1.63;;;;;;;;;;6228808;23;20012;-93
2023/01/27 04:46:19;;;;;;;9.45;1.50;;;;;;;;;;6226911;23;20019;-93
2023/01/27 04:48:45;;;;;;;2.20;1.55;;;;;;;;;;6252981;23;20004;-93
2023/01/27 04:51:14;;;;;;;4.47;1.48;;;;;;;;;;6252217;23;20004;-94
2023/01/27 04:53:41;;;;;;;5.20;2.03;;;;;;;;;;6252530;23;20424;-93
2023/01/27 04:56:16;;;;;;;5.47;2.25;;;;;;;;;;6252941;23;20004;-94
2023/01/27 04:58:42;;;;;;;4.25;1.33;;;;;;;;;;6252722;23;20016;-93
2023/01/27 05:01:11;;;;;;;5.55;1.70;;;;;;;;;;6226488;23;20036;-94
2023/01/27 05:03:37;;;;;;;2.80;1.75;;;;;;;;;;6252691;23;20008;-94
2023/01/27 05:06:03;;;;;;;3.83;2.33;;;;;;;;;;6227606;23;20019;-94
2023/01/27 05:08:30;;;;;;;10.65;2.17;;;;;;;;;;6227539;23;20356;-93
2023/01/27 05:11:00;;;;;;;11.13;2.03;;;;;;;;;;6253238;23;20076;-94
2023/01/27 05:13:26;;;;;;;5.68;1.80;;;;;;;;;;6253950;23;20007;-94
2023/01/27 05:16:02;;;;;;;4.65;2.28;;;;;;;;;;6253973;23;20079;-93
2023/01/27 05:18:28;;;;;;;6.53;2.60;;;;;;;;;;6252961;23;20008;-94
2023/01/27 05:20:59;;;;;;;4.78;2.05;;;;;;;;;;6254339;23;20027;-94
2023/01/27 05:23:34;;;;;;;5.20;1.80;;;;;;;;;;6228289;23;20021;-94
2023/01/27 05:26:09;;;;;;;3.13;1.87;;;;;;;;;;6251842;23;20012;-93
2023/01/27 05:28:35;;;;;;;4.45;2.15;;;;;;;;;;6251731;23;20263;-94
2023/01/27 05:31:06;;;;;;;2.42;1.60;;;;;;;;;;6252448;22;20459;-94
2023/01/27 05:33:35;;;;;;;7.85;2.15;;;;;;;;;;6251855;23;20004;-94
2023/01/27 05:36:02;;;;;;;9.88;2.00;;;;;;;;;;6252437;23;20000;-94
2023/01/27 05:38:28;;;;;;;5.10;1.60;;;;;;;;;;6252477;23;20008;-94
2023/01/27 05:41:01;;;;;;;3.38;1.77;;;;;;;;;;6251553;23;20008;-92
2023/01/27 05:43:34;;;;;;;5.03;1.52;;;;;;;;;;6251715;23;20014;-94
2023/01/27 05:46:07;;;;;;;8.07;1.65;;;;;;;;;;6251588;23;20051;-94
2023/01/27 05:48:51;;;;;;;3.50;1.17;;;;;;;;;;6251456;23;20008;-93
2023/01/27 05:51:31;;;;;;;13.02;4.07;;;;;;;;;;6245201;23;20058;-95
2023/01/27 05:54:33;;;;;;;15.98;2.38;;;;;;;;;;6250642;23;20424;-93
2023/01/27 05:57:07;;;;;;;6.22;1.52;;;;;;;;;;6204567;23;20000;-93
2023/01/27 05:59:36;;;;;;;5.47;1.70;;;;;;;;;;6252887;23;20008;-94
2023/01/27 06:16:03;;;;;;;2.72;1.45;;;;;;;;;;6276951;22;19911;-95
2023/01/27 06:18:31;;;;;;;2.78;1.65;;;;;;;;;;6233097;22;19992;-95
2023/01/27 06:21:03;;;;;;;4.30;1.23;;;;;;;;;;6256355;22;20067;-95
2023/01/27 06:23:37;;;;;;;4.20;1.10;;;;;;;;;;6233328;22;20455;-95
2023/01/27 06:26:06;;;;;;;5.75;1.67;;;;;;;;;;6257954;22;20034;-96
2023/01/27 06:28:32;;;;;;;3.30;1.10;;;;;;;;;;6257509;22;20011;-96
2023/01/27 06:31:09;;;;;;;5.53;1.58;;;;;;;;;;6255855;22;20000;-95
2023/01/27 06:33:35;;;;;;;3.97;1.15;;;;;;;;;;6257246;22;20004;-95
2023/01/27 06:36:06;;;;;;;4.63;1.33;;;;;;;;;;6256794;22;20087;-95
2023/01/27 06:38:32;;;;;;;2.25;1.02;;;;;;;;;;6256839;22;20412;-95
2023/01/27 06:40:59;;;;;;;2.15;1.10;;;;;;;;;;6256029;22;20011;-95
2023/01/27 06:43:25;;;;;;;6.43;1.10;;;;;;;;;;6257165;22;20008;-95
2023/01/27 06:45:56;;;;;;;4.63;1.60;;;;;;;;;;6259605;22;20031;-95
2023/01/27 06:48:23;;;;;;;2.20;1.08;;;;;;;;;;6236870;22;20011;-95
2023/01/27 06:50:49;;;;;;;2.90;1.35;;;;;;;;;;6259077;22;20004;-93
2023/01/27 06:53:18;;;;;;;2.72;1.40;;;;;;;;;;6256672;22;20004;-95
2023/01/27 06:55:45;;;;;;;2.55;1.08;;;;;;;;;;6261540;22;19999;-96
2023/01/27 06:58:12;;;;;;;4.70;1.23;;;;;;;;;;6236319;22;20004;-95
2023/01/27 07:00:44;;;;;;;1.65;1.10;;;;;;;;;;6261571;22;20004;-95
2023/01/27 07:03:13;;;;;;;6.00;1.27;;;;;;;;;;6235774;22;20056;-95
2023/01/27 07:05:49;;;;;;;1.55;0.90;;;;;;;;;;6244661;23;20006;-95
2023/01/27 07:08:16;;;;;;;3.30;1.33;;;;;;;;;;6255083;23;20372;-95
2023/01/27 07:10:44;;;;;;;8.32;1.33;;;;;;;;;;6256728;23;20004;-95
2023/01/27 07:13:44;;;;;;;3.30;1.50;;;;;;;;;;6257251;23;20000;-96
2023/01/27 07:16:13;;;;;;;1.92;1.05;;;;;;;;;;6244258;22;20410;-95
2023/01/27 07:18:46;;;;;;;7.50;1.23;;;;;;;;;;6225544;23;20130;-95
2023/01/27 07:21:21;;;;;;;2.45;1.33;;;;;;;;;;6224510;23;20031;-95
2023/01/27 07:24:10;;;;;;;2.00;1.40;;;;;;;;;;6197651;23;20013;-95
2023/01/27 07:26:48;;;;;;;3.15;1.30;;;;;;;;;;6221177;23;20004;-94
2023/01/27 07:29:14;;;;;;;6.68;1.88;;;;;;;;;;6196078;23;20012;-96
2023/01/27 07:31:43;;;;;;;7.70;1.42;;;;;;;;;;6223729;23;20128;-96
2023/01/27 07:34:13;;;;;;;14.50;1.77;;;;;;;;;;6199912;23;20011;-95
2023/01/27 07:36:39;;;;;;;4.38;1.38;;;;;;;;;;6200691;23;20012;-95
2023/01/27 07:39:20;;;;;;;3.47;1.50;;;;;;;;;;6225610;23;20025;-95
2023/01/27 07:41:52;;;;;;;5.15;1.42;;;;;;;;;;6205104;23;20083;-96
2023/01/27 07:44:20;;;;;;;3.58;1.73;;;;;;;;;;6203425;23;20012;-96
2023/01/27 07:46:46;;;;;;;5.25;1.60;;;;;;;;;;6228365;23;20007;-96
2023/01/27 07:49:23;;;;;;;8.07;1.70;;;;;;;;;;6224915;23;20012;-93
2023/01/27 07:51:54;;;;;;;7.72;2.33;;;;;;;;;;6206100;23;20004;-93
2023/01/27 07:54:20;;;;;;;4.53;2.03;;;;;;;;;;6229535;23;20005;-93
2023/01/27 08:00:04;;;;;;;9.70;2.28;;;;;;;;;;6226151;23;20091;-95
2023/01/27 08:02:30;;;;;;;12.07;2.75;;;;;;;;;;6223695;23;20009;-93
2023/01/27 08:04:56;;;;;;;8.10;2.05;;;;;;;;;;6223523;23;20008;-93
2023/01/27 08:07:28;;;;;;;5.75;1.77;;;;;;;;;;6224778;23;20004;-93
2023/01/27 08:09:57;;;;;;;5.68;3.22;;;;;;;;;;6223437;23;20015;-93
2023/01/27 08:12:26;;;;;;;5.60;2.03;;;;;;;;;;6199201;23;20437;-93
2023/01/27 08:18:11;;;;;;;10.82;2.88;;;;;;;;;;6129546;23;20019;-93
2023/01/27 08:20:37;;;;;;;7.00;2.20;;;;;;;;;;6200160;23;20016;-94
2023/01/27 08:23:17;;;;;;;9.00;2.58;;;;;;;;;;6175995;23;20060;-93
2023/01/27 08:25:48;;;;;;;4.72;1.42;;;;;;;;;;6177266;23;20088;-93
2023/01/27 08:28:17;;;;;;;5.03;1.83;;;;;;;;;;6199119;23;20012;-93
2023/01/27 08:30:44;;;;;;;7.93;1.70;;;;;;;;;;6197526;23;20028;-95
2023/01/27 08:33:10;;;;;;;2.90;1.55;;;;;;;;;;6193370;23;20001;-93
2023/01/27 08:35:43;;;;;;;9.55;1.60;;;;;;;;;;6193399;23;20017;-94
2023/01/27 08:38:10;;;;;;;4.85;1.95;;;;;;;;;;6177103;23;20064;-94
2023/01/27 08:41:00;;;;;;;;;;;;;;;;;;;;;
2023/01/27 08:43:37;;;;;;;9.07;1.83;;;;;;;;;;6196649;23;20032;-95
2023/01/27 08:46:07;;;;;;;3.80;1.50;;;;;;;;;;6171715;23;20009;-94
2023/01/27 08:48:33;;;;;;;5.97;2.08;;;;;;;;;;6169473;23;20063;-94
2023/01/27 08:51:02;;;;;;;9.20;2.28;;;;;;;;;;6195107;23;20005;-94
2023/01/27 08:53:45;;;;;;;14.20;2.38;;;;;;;;;;6197606;23;20021;-94
2023/01/27 08:56:43;;;;;;;5.10;1.73;;;;;;;;;;6176143;23;20051;-94
2023/01/27 08:59:17;;;;;;;6.15;2.17;;;;;;;;;;6185867;23;20430;-94
2023/01/27 09:01:49;;;;;;;12.23;2.00;;;;;;;;;;6192832;23;20080;-93
2023/01/27 09:04:15;;;;;;;12.52;2.00;;;;;;;;;;6193131;23;20012;-94
2023/01/27 09:06:52;;;;;;;4.47;1.85;;;;;;;;;;6196921;23;20009;-94
2023/01/27 09:09:19;;;;;;;11.93;3.03;;;;;;;;;;6169377;23;20009;-94
2023/01/27 09:12:03;;;;;;;8.57;2.72;;;;;;;;;;6197172;23;20001;-94
2023/01/27 09:14:50;;;;;;;12.38;2.50;;;;;;;;;;6175038;23;20087;-94
2023/01/27 09:17:18;;;;;;;10.00;2.70;;;;;;;;;;6172532;23;20033;-94
2023/01/27 09:19:57;;;;;;;11.43;2.17;;;;;;;;;;6202171;22;20024;-95
2023/01/27 09:22:27;;;;;;;11.90;2.63;;;;;;;;;;6228037;23;20016;-94
2023/01/27 09:25:06;;;;;;;;;;;;;;;;;;;;;
2023/01/27 09:27:43;;;;;;;7.20;2.67;;;;;;;;;;6225862;23;20036;-94
2023/01/27 09:30:12;;;;;;;10.50;2.55;;;;;;;;;;6197854;23;20393;-94
2023/01/27 09:32:41;;;;;;;7.05;1.85;;;;;;;;;;6222155;23;20056;-94
2023/01/27 09:35:09;;;;;;;4.70;2.00;;;;;;;;;;6222342;23;20015;-95
2023/01/27 09:37:43;;;;;;;3.63;2.10;;;;;;;;;;6225826;23;20001;-94
2023/01/27 09:40:30;;;;;;;4.05;2.08;;;;;;;;;;6229405;23;20011;-94
2023/01/27 09:43:10;;;;;;;5.43;2.10;;;;;;;;;;6223257;23;20005;-94
2023/01/27 09:45:45;;;;;;;4.75;1.42;;;;;;;;;;6223393;23;20009;-95
2023/01/27 09:48:24;;;;;;;4.70;1.40;;;;;;;;;;6222984;23;20028;-94
2023/01/27 09:51:09;;;;;;;4.00;1.80;;;;;;;;;;6222875;23;20005;-95
2023/01/27 09:53:57;;;;;;;4.65;1.88;;;;;;;;;;6223539;23;20000;-94
2023/01/27 09:56:49;;;;;;;10.05;2.38;;;;;;;;;;6223423;23;20000;-95
2023/01/27 09:59:25;;;;;;;4.40;1.80;;;;;;;;;;6187426;23;20421;-95
2023/01/27 10:01:51;;;;;;;;;;;;;;;;;;6223943;23;20005;-93
2023/01/27 10:04:27;;;;;;;8.38;1.85;;;;;;;;;;6231069;23;19949;-95
2023/01/27 10:07:08;;;;;;;5.13;3.00;;;;;;;;;;6230247;23;20008;-95
2023/01/27 10:09:48;;;;;;;4.53;1.73;;;;;;;;;;6230579;23;20047;-95
2023/01/27 10:12:17;;;;;;;5.07;1.40;;;;;;;;;;6230352;23;20012;-96
2023/01/27 10:15:02;;;;;;;4.80;1.63;;;;;;;;;;6229671;23;20108;-95
2023/01/27 10:17:54;;;;;;;3.17;1.48;;;;;;;;;;6228889;22;20418;-95
2023/01/27 10:20:32;;;;;;;2.97;1.20;;;;;;;;;;6195227;23;20005;-95
2023/01/27 10:23:17;;;;;;;1.33;1.20;;;;;;;;;;6192784;23;20016;-95
2023/01/27 10:25:58;;;;;;;2.72;1.08;;;;;;;;;;6197866;23;20031;-94
2023/01/27 10:28:56;;;;;;;5.10;1.38;;;;;;;;;;6197590;23;20005;-94
2023/01/27 10:31:26;;;;;;;2.65;1.33;;;;;;;;;;6161540;23;20013;-94
2023/01/27 10:33:52;;;;;;;2.35;1.10;;;;;;;;;;6112657;23;20010;-94
2023/01/27 10:36:39;;;;;;;4.90;1.70;;;;;;;;;;6160593;23;20001;-94
2023/01/27 10:42:14;;;;;;;1.52;1.20;;;;;;;;;;6157155;23;19943;-95
2023/01/27 10:44:40;;;;;;;;;;;;;;;;;;6095313;23;20148;-95
2023/01/27 10:47:38;;;;;;;2.72;1.67;;;;;;;;;;6136612;23;19900;-94
2023/01/27 10:50:08;;;;;;;6.38;2.17;;;;;;;;;;6120158;23;20006;-94
2023/01/27 10:52:37;;;;;;;6.00;2.35;;;;;;;;;;6139474;23;20040;-94
2023/01/27 10:55:16;;;;;;;5.57;1.92;;;;;;;;;;6145710;23;20006;-95
2023/01/27 10:57:53;;;;;;;3.90;2.83;;;;;;;;;;6141568;23;20466;-94
2023/01/27 11:00:30;;;;;;;3.50;2.20;;;;;;;;;;6137709;23;20005;-94
2023/01/27 11:02:56;;;;;;;6.85;2.45;;;;;;;;;;6178622;23;20001;-94
2023/01/27 11:05:35;;;;;;;2.80;1.92;;;;;;;;;;6197916;23;20005;-94
2023/01/27 11:08:40;;;;;;;;;;;;;;;;;;;;;
2023/01/27 11:14:01;;;;;;;4.78;2.58;;;;;;;;;;6194657;23;20092;-94
2023/01/27 11:16:33;;;;;;;3.42;2.40;;;;;;;;;;6194401;23;20314;-94
2023/01/27 11:19:16;;;;;;;3.72;2.47;;;;;;;;;;6214905;22;20009;-95
2023/01/27 11:21:42;;;;;;;3.53;2.70;;;;;;;;;;6222822;23;20056;-95
2023/01/27 11:24:23;;;;;;;7.93;4.03;;;;;;;;;;6223405;23;20495;-95
2023/01/27 11:27:36;;;;;;;;;;;;;;;;;;;;;
2023/01/27 11:30:32;;;;;;;4.78;2.50;;;;;;;;;;6222708;23;20039;-94
2023/01/27 11:33:17;;;;;;;5.75;2.75;;;;;;;;;;6139166;23;20005;-94
2023/01/27 11:36:07;;;;;;;4.28;2.63;;;;;;;;;;6139610;23;20005;-94
2023/01/27 11:38:32;;;;;;;6.13;3.03;;;;;;;;;;6215899;23;20009;-95
2023/01/27 11:41:01;;;;;;;3.88;3.00;;;;;;;;;;6201475;23;20012;-94
2023/01/27 11:43:30;;;;;;;4.60;2.72;;;;;;;;;;6199525;23;20016;-94
2023/01/27 11:46:16;;;;;;;4.40;2.97;;;;;;;;;;6198523;23;20096;-94
2023/01/27 11:48:48;;;;;;;2.90;2.42;;;;;;;;;;6222954;23;20012;-95
2023/01/27 11:51:19;;;;;;;4.45;2.83;;;;;;;;;;6224716;23;20001;-94
2023/01/27 11:53:53;;;;;;;5.05;2.75;;;;;;;;;;6225649;23;20005;-94
2023/01/27 11:56:19;;;;;;;5.80;3.00;;;;;;;;;;6226857;23;20023;-95
2023/01/27 11:59:01;;;;;;;3.60;2.70;;;;;;;;;;6224301;23;20085;-95
2023/01/27 12:01:38;;;;;;;11.25;3.53;;;;;;;;;;6222066;23;20008;-95
2023/01/27 12:04:19;;;;;;;3.58;2.67;;;;;;;;;;6222348;23;20384;-95
2023/01/27 12:06:52;;;;;;;4.80;2.80;;;;;;;;;;6222022;23;20009;-95
2023/01/27 12:09:44;;;;;;;7.55;3.17;;;;;;;;;;6222254;23;20114;-95
2023/01/27 12:12:13;;;;;;;6.60;3.15;;;;;;;;;;6212720;23;20079;-95
2023/01/27 12:21:02;;;;;;;5.25;3.05;;;;;;;;;;6248868;23;20015;-95
2023/01/27 12:23:46;;;;;;;7.60;4.18;;;;;;;;;;6253299;23;20008;-95
2023/01/27 12:26:28;;;;;;;8.45;3.80;;;;;;;;;;6252916;23;20004;-95
2023/01/27 12:29:19;;;;;;;6.28;3.60;;;;;;;;;;6251553;23;20106;-95
2023/01/27 12:34:38;;;;;;;5.07;2.92;;;;;;;;;;6192672;23;20502;-94
2023/01/27 12:37:27;;;;;;;4.18;2.15;;;;;;;;;;6254610;23;20075;-95
2023/01/27 13:47:34;;;;;;;2.63;1.70;;;;;;;;;;6261451;22;20020;-95
2023/01/27 13:50:40;;;;;;;3.90;1.30;;;;;;;;;;6234689;22;20012;-95
2023/01/27 13:53:09;;;;;;;2.40;1.60;;;;;;;;;;6133121;23;20002;-94
2023/01/27 13:55:38;;;;;;;1.77;1.42;;;;;;;;;;6240720;22;20059;-96
2023/01/27 13:58:04;;;;;;;1.88;1.35;;;;;;;;;;6261260;22;20000;-96
2023/01/27 14:00:51;;;;;;;1.88;1.20;;;;;;;;;;6261073;22;20011;-96
2023/01/27 14:03:41;;;;;;;2.83;1.35;;;;;;;;;;6261122;22;20028;-96
2023/01/27 14:06:31;;;;;;;1.92;1.48;;;;;;;;;;6259596;22;20007;-96
2023/01/27 14:09:15;;;;;;;2.92;1.30;;;;;;;;;;6259117;22;20004;-96
2023/01/27 14:11:51;;;;;;;1.88;1.50;;;;;;;;;;6259094;22;20008;-96
2023/01/27 14:14:34;;;;;;;3.53;2.42;;;;;;;;;;6260257;22;20004;-94
2023/01/27 14:17:08;;;;;;;9.82;6.32;;;;;;;;;;6257222;22;20007;-95
2023/01/27 14:19:49;;;;;;;9.98;5.28;;;;;;;;;;6257919;22;20031;-94
2023/01/27 14:22:22;;;;;;;5.95;3.90;;;;;;;;;;6257834;22;20038;-95
2023/01/27 14:25:07;;;;;;;3.45;2.95;;;;;;;;;;6256848;22;20420;-94
2023/01/27 14:27:43;;;;;;;4.13;3.10;;;;;;;;;;6258363;22;20132;-96
2023/01/27 14:30:09;;;;;;;;;;;;;;;;;;6257933;22;20003;-96
2023/01/27 14:32:41;;;;;;;1.98;1.73;;;;;;;;;;6258010;22;19899;-96
2023/01/27 14:35:26;;;;;;;1.80;1.52;;;;;;;;;;6258786;22;20004;-96
2023/01/27 14:38:10;;;;;;;5.95;2.30;;;;;;;;;;6258894;22;20487;-96
2023/01/27 14:40:48;;;;;;;3.05;1.90;;;;;;;;;;6257558;22;20432;-96
2023/01/27 14:43:44;;;;;;;4.15;1.50;;;;;;;;;;6257971;22;20008;-96
2023/01/27 14:46:19;;;;;;;1.63;1.40;;;;;;;;;;6232448;22;20089;-96
2023/01/27 14:48:45;;;;;;;;;;;;;;;;;;6254477;22;20012;-96
2023/01/27 14:51:30;;;;;;;5.32;1.80;;;;;;;;;;6253254;23;19927;-96
2023/01/27 14:54:16;;;;;;;3.17;2.17;;;;;;;;;;6253715;23;20004;-96
2023/01/27 14:57:34;;;;;;;3.65;1.90;;;;;;;;;;6253395;23;20014;-96
2023/01/27 15:00:15;;;;;;;2.58;2.13;;;;;;;;;;6250719;23;20035;-96
2023/01/27 15:02:53;;;;;;;3.38;2.10;;;;;;;;;;6253501;23;20004;-96
2023/01/27 15:05:42;;;;;;;4.45;2.70;;;;;;;;;;6252876;23;20061;-96
2023/01/27 15:08:38;;;;;;;3.83;3.20;;;;;;;;;;6212558;23;20004;-96
2023/01/27 15:11:10;;;;;;;3.20;2.67;;;;;;;;;;6234601;23;20470;-96
2023/01/27 15:13:51;;;;;;;3.20;2.55;;;;;;;;;;6253658;23;20008;-96
2023/01/27 15:16:29;;;;;;;3.10;2.38;;;;;;;;;;6253794;23;20062;-96
2023/01/27 15:19:17;;;;;;;2.80;2.03;;;;;;;;;;6255547;23;20079;-96
2023/01/27 15:21:52;;;;;;;4.28;1.77;;;;;;;;;;6255938;23;20440;-96
2023/01/27 15:27:28;;;;;;;4.40;2.70;;;;;;;;;;6256992;23;20010;-96
2023/01/27 15:29:54;;;;;;;5.30;2.97;;;;;;;;;;6229532;23;20008;-96
2023/01/27 15:36:10;;;;;;;8.98;5.05;;;;;;;;;;6162079;23;20031;-96
2023/01/27 15:38:57;;;;;;;5.63;2.40;;;;;;;;;;6132440;23;20002;-96
2023/01/27 15:51:39;;;;;;;7.28;2.60;;;;;;;;;;6195388;22;20035;-96
2023/01/27 15:54:15;;;;;;;6.30;2.25;;;;;;;;;;6173410;23;20016;-96
2023/01/27 15:57:07;;;;;;;4.43;2.75;;;;;;;;;;6223970;23;20013;-96
2023/01/27 16:03:04;;;;;;;4.22;2.00;;;;;;;;;;6227971;23;20088;-96
2023/01/27 16:12:07;;;;;;;;;;;;;;;;;;;;;
2023/01/27 16:27:01;;;;;;;2.45;1.73;;;;;;;;;;6136581;23;20077;-95
2023/01/27 16:41:14;;;;;;;5.60;3.17;;;;;;;;;;6248806;22;20292;-96
2023/01/27 16:43:43;;;;;;;8.63;2.88;;;;;;;;;;6257519;22;20061;-96
2023/01/27 16:46:25;;;;;;;3.28;2.15;;;;;;;;;;6251265;23;20011;-96
2023/01/27 16:48:52;;;;;;;4.28;2.72;;;;;;;;;;6251661;23;20089;-96
2023/01/27 16:51:19;;;;;;;2.75;2.15;;;;;;;;;;6249555;23;20006;-96
2023/01/27 16:53:53;;;;;;;2.72;2.15;;;;;;;;;;6249552;23;20423;-96
2023/01/27 16:56:21;;;;;;;3.92;1.83;;;;;;;;;;6249546;23;20031;-96
2023/01/27 16:58:47;;;;;;;5.18;2.05;;;;;;;;;;6250336;23;20004;-96
2023/01/27 17:01:28;;;;;;;4.00;1.77;;;;;;;;;;6250436;23;20077;-96
2023/01/27 17:03:56;;;;;;;3.40;2.03;;;;;;;;;;6249180;23;20336;-96
2023/01/27 17:06:22;;;;;;;2.42;1.85;;;;;;;;;;6250315;23;20075;-96
2023/01/27 17:08:49;;;;;;;4.05;2.70;;;;;;;;;;6225076;23;20348;-96
2023/01/27 17:11:22;;;;;;;4.55;2.55;;;;;;;;;;6251266;23;20000;-96
2023/01/27 17:13:49;;;;;;;5.90;2.33;;;;;;;;;;6253011;23;20007;-96
2023/01/27 17:16:36;;;;;;;3.72;1.98;;;;;;;;;;6252128;23;20083;-96
2023/01/27 17:19:02;;;;;;;;;;;;;;;;;;6252449;23;20019;-96
2023/01/27 17:21:34;;;;;;;2.80;2.30;;;;;;;;;;6251078;23;19939;-96
2023/01/27 17:24:19;;;;;;;3.97;2.30;;;;;;;;;;6252052;23;20029;-96
2023/01/27 17:26:48;;;;;;;4.22;2.38;;;;;;;;;;6252012;23;20034;-96
2023/01/27 17:29:17;;;;;;;4.15;2.28;;;;;;;;;;6252792;23;20004;-96
2023/01/27 17:31:43;;;;;;;6.35;2.55;;;;;;;;;;6250469;23;20000;-96
2023/01/27 17:34:14;;;;;;;11.70;4.65;;;;;;;;;;6250629;23;20092;-96
2023/01/27 17:37:00;;;;;;;17.98;5.78;;;;;;;;;;6252545;23;20008;-96
2023/01/27 17:39:26;;;;;;;;;;;;;;;;;;6241159;23;20008;-95
2023/01/27 17:42:00;;;;;;;6.57;4.07;;;;;;;;;;6252198;22;19918;-96
2023/01/27 17:44:27;;;;;;;6.93;4.57;;;;;;;;;;6226072;23;20012;-96
2023/01/27 17:46:53;;;;;;;7.97;5.13;;;;;;;;;;6252229;23;20008;-96
2023/01/27 17:49:19;;;;;;;6.20;4.38;;;;;;;;;;6226506;23;20019;-96
2023/01/27 17:51:55;;;;;;;6.60;4.80;;;;;;;;;;6226406;23;20054;-96
2023/01/27 17:54:24;;;;;;;9.07;4.60;;;;;;;;;;6252221;23;20005;-96
2023/01/27 17:56:51;;;;;;;11.15;6.65;;;;;;;;;;6254592;23;20461;-96
2023/01/27 17:59:21;;;;;;;11.90;6.20;;;;;;;;;;6252976;23;20012;-96
2023/01/27 18:01:50;;;;;;;8.88;6.32;;;;;;;;;;6253214;23;20011;-96
2023/01/27 18:04:16;;;;;;;14.65;6.68;;;;;;;;;;6252714;23;20088;-96
2023/01/27 18:06:42;;;;;;;9.32;6.53;;;;;;;;;;6227674;23;20012;-96
2023/01/27 18:09:19;;;;;;;10.20;6.95;;;;;;;;;;6253088;23;20051;-96
2023/01/27 18:12:00;;;;;;;11.07;7.30;;;;;;;;;;6253973;23;20004;-96
2023/01/27 18:14:26;;;;;;;12.45;6.82;;;;;;;;;;6252155;23;20004;-96
2023/01/27 18:17:21;;;;;;;12.73;7.53;;;;;;;;;;6252335;23;20409;-96
2023/01/27 18:19:55;;;;;;;12.35;8.38;;;;;;;;;;6251713;23;20004;-96
2023/01/27 18:22:27;;;;;;;21.00;7.40;;;;;;;;;;6253145;23;20004;-96
2023/01/27 18:24:56;;;;;;;8.98;6.28;;;;;;;;;;6252345;23;20015;-96
2023/01/27 18:27:23;;;;;;;8.45;5.85;;;;;;;;;;6254203;23;20019;-96